Time;durP1;ratioP1;P1;durP2;ratioP2;P2;SDS_P1;SDS_P2;PMS_P1;PMS_P2;Temp;Humidity;BMP_temperature;BMP_pressure;BME280_temperature;BME280_humidity;BME280_pressure;Samples;Min_cycle;Max_cycle;Signal;HPM_P1;HPM_P2
2023/10/23 00:00:56;;;;;;;2.55;2.10;;;;;;;;;;4984847;28;20462;-68
2023/10/23 00:03:21;;;;;;;5.13;2.33;;;;;;;;;;4980373;28;20272;-68
2023/10/23 00:05:47;;;;;;;3.80;2.50;;;;;;;;;;4981695;28;20046;-69
2023/10/23 00:08:12;;;;;;;2.80;2.22;;;;;;;;;;4982175;28;20665;-69
2023/10/23 00:10:37;;;;;;;2.13;1.92;;;;;;;;;;4981736;28;20054;-69
2023/10/23 00:13:03;;;;;;;3.95;2.35;;;;;;;;;;4983495;28;20050;-68
2023/10/23 00:15:29;;;;;;;4.85;2.28;;;;;;;;;;4983738;28;20051;-70
2023/10/23 00:17:54;;;;;;;2.10;1.90;;;;;;;;;;4981884;28;20050;-71
2023/10/23 00:20:20;;;;;;;3.30;2.28;;;;;;;;;;4986775;28;20046;-70
2023/10/23 00:22:45;;;;;;;4.47;2.10;;;;;;;;;;4984916;28;20141;-69
2023/10/23 00:25:11;;;;;;;3.20;2.00;;;;;;;;;;4981825;28;20078;-69
2023/10/23 00:27:36;;;;;;;3.08;2.28;;;;;;;;;;4979705;28;20216;-70
2023/10/23 00:30:02;;;;;;;2.50;1.98;;;;;;;;;;4986684;28;20035;-69
2023/10/23 00:32:27;;;;;;;3.83;2.40;;;;;;;;;;4985354;28;20554;-70
2023/10/23 00:34:53;;;;;;;3.08;2.35;;;;;;;;;;4985960;28;20128;-69
2023/10/23 00:37:18;;;;;;;2.95;2.30;;;;;;;;;;4967479;28;20121;-70
2023/10/23 00:39:44;;;;;;;3.15;2.50;;;;;;;;;;4978619;28;20054;-71
2023/10/23 00:42:09;;;;;;;3.35;2.60;;;;;;;;;;4989928;28;20475;-70
2023/10/23 00:44:35;;;;;;;4.20;2.72;;;;;;;;;;4983671;28;20089;-70
2023/10/23 00:47:01;;;;;;;4.40;2.53;;;;;;;;;;4981768;28;20045;-69
2023/10/23 00:49:27;;;;;;;5.03;3.13;;;;;;;;;;5000649;28;20854;-69
2023/10/23 00:51:52;;;;;;;3.65;2.50;;;;;;;;;;4984116;28;20061;-71
2023/10/23 00:54:19;;;;;;;3.08;2.83;;;;;;;;;;4971133;28;20089;-70
2023/10/23 00:56:46;;;;;;;5.68;2.95;;;;;;;;;;5000732;28;20050;-71
2023/10/23 00:59:12;;;;;;;3.92;2.72;;;;;;;;;;4987391;28;20593;-70
2023/10/23 01:01:38;;;;;;;2.83;2.22;;;;;;;;;;4999279;28;20085;-70
2023/10/23 01:04:05;;;;;;;4.55;2.85;;;;;;;;;;4982725;28;20038;-69
2023/10/23 01:06:31;;;;;;;2.92;2.60;;;;;;;;;;4985589;28;20050;-69
2023/10/23 01:08:57;;;;;;;3.65;2.60;;;;;;;;;;4989446;28;20041;-69
2023/10/23 01:11:23;;;;;;;2.53;2.25;;;;;;;;;;4984049;28;20042;-70
2023/10/23 01:13:48;;;;;;;2.65;2.35;;;;;;;;;;4981833;28;20581;-69
2023/10/23 01:16:14;;;;;;;2.65;2.20;;;;;;;;;;4999447;28;20050;-68
2023/10/23 01:18:39;;;;;;;2.90;2.30;;;;;;;;;;4983815;28;20050;-68
2023/10/23 01:21:05;;;;;;;2.58;2.38;;;;;;;;;;4978382;28;20058;-69
2023/10/23 01:23:34;;;;;;;3.58;2.15;;;;;;;;;;4983030;28;20555;-69
2023/10/23 01:26:00;;;;;;;4.43;2.50;;;;;;;;;;4976254;28;20038;-71
2023/10/23 01:28:25;;;;;;;3.53;2.13;;;;;;;;;;4981439;28;20050;-72
2023/10/23 01:30:50;;;;;;;4.45;2.45;;;;;;;;;;4971823;28;20888;-70
2023/10/23 01:33:16;;;;;;;2.47;2.28;;;;;;;;;;4988651;28;20580;-71
2023/10/23 01:35:41;;;;;;;2.35;2.15;;;;;;;;;;4981708;28;20063;-70
2023/10/23 01:38:07;;;;;;;2.40;2.15;;;;;;;;;;4978242;28;20043;-69
2023/10/23 01:40:32;;;;;;;2.60;2.40;;;;;;;;;;4980646;28;20042;-69
2023/10/23 01:42:58;;;;;;;5.05;2.17;;;;;;;;;;4981917;28;20042;-69
2023/10/23 01:45:23;;;;;;;2.17;1.98;;;;;;;;;;4978883;28;20411;-69
2023/10/23 01:47:49;;;;;;;2.92;2.42;;;;;;;;;;4997203;28;20042;-69
2023/10/23 01:50:14;;;;;;;2.80;2.42;;;;;;;;;;4977247;28;20133;-70
2023/10/23 01:52:41;;;;;;;4.60;2.42;;;;;;;;;;4984601;28;20058;-69
2023/10/23 01:55:07;;;;;;;3.42;2.20;;;;;;;;;;4994968;28;20041;-69
2023/10/23 01:57:33;;;;;;;4.03;2.60;;;;;;;;;;4985380;28;20065;-69
2023/10/23 02:00:04;;;;;;;5.22;2.97;;;;;;;;;;4983615;28;20043;-70
2023/10/23 02:02:37;;;;;;;2.40;2.20;;;;;;;;;;4982798;28;20414;-69
2023/10/23 02:05:03;;;;;;;3.90;2.72;;;;;;;;;;4978331;28;20046;-70
2023/10/23 02:07:29;;;;;;;4.05;2.70;;;;;;;;;;4984604;28;20105;-69
2023/10/23 02:09:58;;;;;;;4.80;2.90;;;;;;;;;;4973478;28;20049;-69
2023/10/23 02:12:24;;;;;;;3.22;2.80;;;;;;;;;;4981891;28;20042;-68
2023/10/23 02:14:52;;;;;;;8.18;4.20;;;;;;;;;;4974191;28;20112;-69
2023/10/23 02:17:21;;;;;;;5.10;4.57;;;;;;;;;;4992503;28;20046;-70
2023/10/23 02:19:47;;;;;;;5.38;4.28;;;;;;;;;;4982399;28;20188;-70
2023/10/23 02:22:13;;;;;;;6.20;4.43;;;;;;;;;;4999595;28;20052;-68
2023/10/23 02:24:39;;;;;;;5.53;3.40;;;;;;;;;;4990490;28;20054;-70
2023/10/23 02:27:05;;;;;;;5.13;3.55;;;;;;;;;;4984063;28;20514;-69
2023/10/23 02:29:31;;;;;;;7.53;3.72;;;;;;;;;;4997907;28;20046;-69
2023/10/23 02:31:57;;;;;;;2.90;2.67;;;;;;;;;;4983304;28;20050;-70
2023/10/23 02:34:22;;;;;;;4.50;3.58;;;;;;;;;;4987611;28;20042;-69
2023/10/23 02:36:48;;;;;;;5.47;3.45;;;;;;;;;;4982392;28;20086;-70
2023/10/23 02:39:15;;;;;;;3.63;3.33;;;;;;;;;;4982670;28;20053;-69
2023/10/23 02:41:42;;;;;;;4.00;3.13;;;;;;;;;;4981571;28;20049;-69
2023/10/23 02:44:08;;;;;;;5.07;3.50;;;;;;;;;;4982384;28;20042;-68
2023/10/23 02:46:35;;;;;;;5.75;3.50;;;;;;;;;;4981962;28;20046;-69
2023/10/23 02:49:01;;;;;;;5.97;4.18;;;;;;;;;;4998435;28;20042;-69
2023/10/23 02:51:26;;;;;;;5.45;4.40;;;;;;;;;;4988096;28;20486;-70
2023/10/23 02:53:52;;;;;;;5.20;4.05;;;;;;;;;;4991541;28;20821;-69
2023/10/23 02:56:17;;;;;;;7.95;5.10;;;;;;;;;;4982071;28;20043;-69
2023/10/23 02:58:43;;;;;;;8.82;4.78;;;;;;;;;;4988686;28;20920;-69
2023/10/23 03:01:15;;;;;;;5.25;4.45;;;;;;;;;;4982658;28;20046;-69
2023/10/23 03:03:41;;;;;;;6.03;5.05;;;;;;;;;;4982625;28;20058;-69
2023/10/23 03:06:06;;;;;;;11.45;5.20;;;;;;;;;;4996766;28;20050;-70
2023/10/23 03:08:32;;;;;;;7.88;4.57;;;;;;;;;;4981302;28;20049;-70
2023/10/23 03:10:57;;;;;;;6.65;4.53;;;;;;;;;;4980983;28;20157;-69
2023/10/23 03:13:23;;;;;;;8.32;5.10;;;;;;;;;;4980736;28;20042;-69
2023/10/23 03:15:48;;;;;;;9.70;5.72;;;;;;;;;;4994321;28;20046;-69
2023/10/23 03:18:14;;;;;;;5.82;3.95;;;;;;;;;;4980911;28;20069;-70
2023/10/23 03:20:40;;;;;;;6.25;4.30;;;;;;;;;;4981984;28;20132;-69
2023/10/23 03:23:06;;;;;;;7.47;4.55;;;;;;;;;;4980424;28;20149;-70
2023/10/23 03:25:31;;;;;;;5.63;4.70;;;;;;;;;;4982927;28;20407;-69
2023/10/23 03:27:57;;;;;;;11.30;4.80;;;;;;;;;;4979680;28;20530;-69
2023/10/23 03:30:23;;;;;;;8.38;4.80;;;;;;;;;;4987170;28;20384;-69
2023/10/23 03:32:48;;;;;;;4.35;3.95;;;;;;;;;;4980398;28;20057;-69
2023/10/23 03:35:14;;;;;;;5.90;4.32;;;;;;;;;;4979327;28;20042;-70
2023/10/23 03:37:40;;;;;;;6.35;4.20;;;;;;;;;;4979754;28;20454;-69
2023/10/23 03:40:06;;;;;;;6.15;3.55;;;;;;;;;;4980878;28;20042;-69
2023/10/23 03:42:31;;;;;;;5.68;4.10;;;;;;;;;;4980717;28;20073;-69
2023/10/23 03:44:57;;;;;;;7.10;3.85;;;;;;;;;;4988187;28;20046;-69
2023/10/23 03:47:22;;;;;;;5.45;3.00;;;;;;;;;;4995160;28;20034;-69
2023/10/23 03:49:48;;;;;;;4.07;2.60;;;;;;;;;;4985856;28;20435;-69
2023/10/23 03:52:13;;;;;;;5.97;2.42;;;;;;;;;;4979133;28;20126;-69
2023/10/23 03:54:39;;;;;;;2.80;2.60;;;;;;;;;;4980905;28;20526;-70
2023/10/23 03:57:04;;;;;;;3.10;2.80;;;;;;;;;;4981103;28;20061;-69
2023/10/23 03:59:29;;;;;;;3.33;3.03;;;;;;;;;;4979976;28;20073;-71
2023/10/23 04:01:55;;;;;;;6.10;2.58;;;;;;;;;;4980600;28;20050;-69
2023/10/23 04:04:20;;;;;;;3.47;2.88;;;;;;;;;;4980161;28;20046;-69
2023/10/23 04:06:46;;;;;;;4.45;2.65;;;;;;;;;;4980136;28;20042;-70
2023/10/23 04:09:11;;;;;;;3.05;2.65;;;;;;;;;;4975866;28;20093;-70
2023/10/23 04:11:37;;;;;;;3.22;2.83;;;;;;;;;;4980264;28;20070;-69
2023/10/23 04:14:02;;;;;;;3.35;2.35;;;;;;;;;;4980159;28;20050;-68
2023/10/23 04:16:28;;;;;;;3.28;2.40;;;;;;;;;;4979520;28;20052;-69
2023/10/23 04:18:53;;;;;;;2.63;2.17;;;;;;;;;;4977339;28;20046;-69
2023/10/23 04:21:20;;;;;;;2.50;2.25;;;;;;;;;;4968123;28;20065;-69
2023/10/23 04:23:46;;;;;;;3.75;2.67;;;;;;;;;;4979909;28;20042;-71
2023/10/23 04:26:14;;;;;;;3.35;2.95;;;;;;;;;;4979558;28;20092;-70
2023/10/23 04:28:39;;;;;;;3.00;2.63;;;;;;;;;;4978955;28;20500;-72
2023/10/23 04:31:05;;;;;;;3.35;2.70;;;;;;;;;;4976444;28;20077;-69
2023/10/23 04:33:30;;;;;;;3.70;2.63;;;;;;;;;;4976886;28;20046;-68
2023/10/23 04:35:57;;;;;;;3.45;2.17;;;;;;;;;;4978410;28;20182;-69
2023/10/23 04:38:24;;;;;;;5.10;2.97;;;;;;;;;;4979081;28;20825;-71
2023/10/23 04:40:50;;;;;;;4.13;2.45;;;;;;;;;;4976638;28;20086;-69
2023/10/23 04:43:16;;;;;;;2.85;2.50;;;;;;;;;;4993292;28;20121;-70
2023/10/23 04:45:41;;;;;;;5.45;3.35;;;;;;;;;;4978784;28;20046;-69
2023/10/23 04:48:08;;;;;;;2.63;2.28;;;;;;;;;;4978771;28;20427;-69
2023/10/23 04:50:35;;;;;;;4.25;2.58;;;;;;;;;;4979518;28;20129;-69
2023/10/23 04:53:00;;;;;;;3.53;2.67;;;;;;;;;;4979126;28;20750;-70
2023/10/23 04:55:26;;;;;;;3.33;2.45;;;;;;;;;;4978914;28;20141;-73
2023/10/23 04:57:52;;;;;;;3.10;2.53;;;;;;;;;;4979878;28;20057;-70
2023/10/23 05:00:19;;;;;;;2.67;2.42;;;;;;;;;;4978615;28;20042;-70
2023/10/23 05:02:47;;;;;;;2.45;2.22;;;;;;;;;;4979521;28;20046;-71
2023/10/23 05:05:12;;;;;;;3.45;2.30;;;;;;;;;;4978884;28;20056;-69
2023/10/23 05:07:38;;;;;;;2.97;2.47;;;;;;;;;;4979868;28;20050;-70
2023/10/23 05:10:07;;;;;;;3.15;2.05;;;;;;;;;;4979280;28;20534;-70
2023/10/23 05:12:34;;;;;;;2.20;2.00;;;;;;;;;;4976981;28;20050;-71
2023/10/23 05:15:00;;;;;;;2.95;2.50;;;;;;;;;;4975325;28;20049;-71
2023/10/23 05:17:26;;;;;;;3.30;2.40;;;;;;;;;;4976075;28;20031;-72
2023/10/23 05:19:52;;;;;;;5.45;2.90;;;;;;;;;;4992197;28;20050;-71
2023/10/23 05:22:17;;;;;;;3.13;2.83;;;;;;;;;;4976272;28;20042;-71
2023/10/23 05:24:46;;;;;;;5.88;2.90;;;;;;;;;;4976755;28;20050;-73
2023/10/23 05:27:13;;;;;;;5.10;2.72;;;;;;;;;;4976561;28;20040;-71
2023/10/23 05:29:38;;;;;;;6.25;3.10;;;;;;;;;;4977348;28;20050;-71
2023/10/23 05:32:04;;;;;;;5.18;2.88;;;;;;;;;;4977949;28;20652;-72
2023/10/23 05:34:29;;;;;;;3.13;2.50;;;;;;;;;;4979027;28;20052;-73
2023/10/23 05:36:55;;;;;;;3.35;2.80;;;;;;;;;;4977273;28;20061;-70
2023/10/23 05:39:20;;;;;;;4.63;2.42;;;;;;;;;;4993146;28;20050;-71
2023/10/23 05:41:45;;;;;;;4.68;2.67;;;;;;;;;;4979292;28;20085;-73
2023/10/23 05:44:11;;;;;;;6.32;2.90;;;;;;;;;;4978827;28;20733;-70
2023/10/23 05:46:36;;;;;;;9.93;4.72;;;;;;;;;;4980036;28;20582;-70
2023/10/23 05:49:02;;;;;;;16.17;6.32;;;;;;;;;;4994708;28;20050;-70
2023/10/23 05:51:27;;;;;;;17.10;6.45;;;;;;;;;;4979385;28;20054;-72
2023/10/23 05:53:52;;;;;;;11.07;4.50;;;;;;;;;;4979188;28;20057;-70
2023/10/23 05:56:18;;;;;;;6.32;3.03;;;;;;;;;;4978638;28;20534;-71
2023/10/23 05:58:46;;;;;;;3.45;2.35;;;;;;;;;;4979406;28;20478;-73
2023/10/23 06:01:12;;;;;;;3.08;2.78;;;;;;;;;;4977936;28;20038;-71
2023/10/23 06:03:38;;;;;;;2.83;2.50;;;;;;;;;;4978988;28;20046;-72
2023/10/23 06:06:04;;;;;;;4.90;2.78;;;;;;;;;;4978469;28;20217;-71
2023/10/23 06:08:29;;;;;;;9.02;2.97;;;;;;;;;;4979483;28;20049;-71
2023/10/23 06:10:55;;;;;;;2.47;2.10;;;;;;;;;;4978935;28;20050;-72
2023/10/23 06:13:20;;;;;;;6.00;2.78;;;;;;;;;;4978712;28;20487;-70
2023/10/23 06:15:47;;;;;;;3.47;2.35;;;;;;;;;;4978552;28;20054;-71
2023/10/23 06:18:12;;;;;;;3.72;2.85;;;;;;;;;;4973471;28;20435;-71
2023/10/23 06:20:38;;;;;;;2.92;2.58;;;;;;;;;;4979031;28;20055;-72
2023/10/23 06:23:03;;;;;;;3.28;2.63;;;;;;;;;;4978881;28;20511;-70
2023/10/23 06:25:30;;;;;;;5.43;2.25;;;;;;;;;;4978445;28;20038;-71
2023/10/23 06:27:55;;;;;;;1.90;1.63;;;;;;;;;;4977961;28;20100;-70
2023/10/23 06:30:21;;;;;;;2.20;1.98;;;;;;;;;;4978202;28;20050;-71
2023/10/23 06:32:47;;;;;;;2.65;2.42;;;;;;;;;;4977617;28;20092;-71
2023/10/23 06:35:12;;;;;;;3.15;2.17;;;;;;;;;;4978272;28;20077;-70
2023/10/23 06:37:38;;;;;;;2.65;2.20;;;;;;;;;;4978818;28;20142;-73
2023/10/23 06:40:04;;;;;;;2.88;2.47;;;;;;;;;;4984707;28;20053;-71
2023/10/23 06:42:30;;;;;;;2.88;2.53;;;;;;;;;;4982407;28;20081;-71
2023/10/23 06:44:57;;;;;;;6.45;4.05;;;;;;;;;;4998033;28;20042;-73
2023/10/23 06:47:22;;;;;;;4.35;3.53;;;;;;;;;;4982158;28;20039;-72
2023/10/23 06:49:48;;;;;;;4.85;3.50;;;;;;;;;;4982617;28;20042;-73
2023/10/23 06:52:13;;;;;;;6.47;3.33;;;;;;;;;;4982576;28;20242;-72
2023/10/23 06:54:39;;;;;;;4.28;3.35;;;;;;;;;;4983004;28;20054;-72
2023/10/23 06:57:08;;;;;;;3.60;2.70;;;;;;;;;;4981408;28;20050;-71
2023/10/23 06:59:34;;;;;;;3.10;2.63;;;;;;;;;;4981383;28;20065;-71
2023/10/23 07:02:03;;;;;;;3.55;2.50;;;;;;;;;;4982527;28;20046;-70
2023/10/23 07:04:28;;;;;;;2.25;2.05;;;;;;;;;;4982881;28;20475;-72
2023/10/23 07:06:55;;;;;;;4.45;2.10;;;;;;;;;;4982768;28;20070;-71
2023/10/23 07:09:21;;;;;;;3.20;1.90;;;;;;;;;;4981385;28;20045;-71
2023/10/23 07:11:50;;;;;;;3.92;2.38;;;;;;;;;;4982239;28;20058;-70
2023/10/23 07:14:16;;;;;;;2.88;2.25;;;;;;;;;;4982173;28;20048;-70
2023/10/23 07:16:42;;;;;;;7.88;2.42;;;;;;;;;;4981742;28;20085;-72
2023/10/23 07:19:08;;;;;;;2.13;1.73;;;;;;;;;;4979984;28;20137;-70
2023/10/23 07:21:35;;;;;;;2.22;2.03;;;;;;;;;;4980893;28;20046;-71
2023/10/23 07:24:01;;;;;;;2.25;2.05;;;;;;;;;;4981071;28;20061;-71
2023/10/23 07:26:27;;;;;;;2.25;2.08;;;;;;;;;;4981467;28;20042;-72
2023/10/23 07:28:52;;;;;;;2.10;1.90;;;;;;;;;;4981081;28;20583;-71
2023/10/23 07:31:18;;;;;;;3.08;2.20;;;;;;;;;;4981782;28;20522;-71
2023/10/23 07:33:43;;;;;;;2.30;2.10;;;;;;;;;;4982287;28;20498;-71
2023/10/23 07:36:10;;;;;;;1.77;1.67;;;;;;;;;;4982344;28;20060;-72
2023/10/23 07:38:43;;;;;;;2.83;2.10;;;;;;;;;;4971244;28;20153;-72
2023/10/23 07:41:10;;;;;;;2.65;1.90;;;;;;;;;;4981189;28;20057;-72
2023/10/23 07:43:36;;;;;;;1.88;1.65;;;;;;;;;;4981269;28;20133;-72
2023/10/23 07:46:09;;;;;;;2.42;1.67;;;;;;;;;;4979918;28;20146;-72
2023/10/23 07:48:35;;;;;;;2.47;2.00;;;;;;;;;;4981901;28;20101;-72
2023/10/23 07:51:03;;;;;;;1.60;1.50;;;;;;;;;;4981511;28;20129;-72
2023/10/23 07:53:31;;;;;;;2.33;1.60;;;;;;;;;;4979971;28;20082;-71
2023/10/23 07:55:56;;;;;;;1.88;1.45;;;;;;;;;;4981360;28;20064;-71
2023/10/23 07:58:22;;;;;;;2.95;1.83;;;;;;;;;;4981539;28;20373;-72
2023/10/23 08:00:51;;;;;;;2.88;1.70;;;;;;;;;;4981445;28;20058;-72
2023/10/23 08:03:17;;;;;;;3.50;1.75;;;;;;;;;;4980654;28;20042;-72
2023/10/23 08:05:42;;;;;;;2.42;1.80;;;;;;;;;;4980240;28;20422;-72
2023/10/23 08:08:08;;;;;;;2.90;1.95;;;;;;;;;;4981941;28;20518;-71
2023/10/23 08:10:33;;;;;;;2.65;1.77;;;;;;;;;;4980722;28;20038;-72
2023/10/23 08:12:59;;;;;;;2.00;1.70;;;;;;;;;;4982046;28;20042;-72
2023/10/23 08:15:24;;;;;;;2.78;2.13;;;;;;;;;;4979607;28;20557;-73
2023/10/23 08:17:50;;;;;;;2.15;1.60;;;;;;;;;;4980077;28;20516;-71
2023/10/23 08:20:17;;;;;;;2.90;2.05;;;;;;;;;;4981528;28;20088;-72
2023/10/23 08:22:42;;;;;;;2.60;2.10;;;;;;;;;;4981263;28;20042;-73
2023/10/23 08:25:08;;;;;;;1.80;1.70;;;;;;;;;;4981315;28;20866;-69
2023/10/23 08:27:33;;;;;;;2.78;2.05;;;;;;;;;;4980205;28;20054;-69
2023/10/23 08:29:59;;;;;;;2.28;1.90;;;;;;;;;;4980292;28;20046;-73
2023/10/23 08:32:24;;;;;;;3.80;1.80;;;;;;;;;;4981260;28;20097;-70
2023/10/23 08:34:53;;;;;;;2.22;1.58;;;;;;;;;;4982648;28;20081;-73
2023/10/23 08:37:19;;;;;;;6.72;1.88;;;;;;;;;;4979532;28;20077;-74
2023/10/23 08:39:45;;;;;;;5.72;1.73;;;;;;;;;;4979547;28;20061;-72
2023/10/23 08:42:10;;;;;;;2.08;1.48;;;;;;;;;;4979945;28;20050;-73
2023/10/23 08:44:36;;;;;;;3.08;2.00;;;;;;;;;;4979280;28;20048;-71
2023/10/23 08:47:02;;;;;;;2.65;2.20;;;;;;;;;;4979995;28;20065;-72
2023/10/23 08:49:37;;;;;;;1.63;1.52;;;;;;;;;;4979458;28;20085;-72
2023/10/23 08:52:10;;;;;;;2.65;1.63;;;;;;;;;;4979654;28;20129;-73
2023/10/23 08:54:36;;;;;;;1.45;1.35;;;;;;;;;;4979949;28;20038;-71
2023/10/23 08:57:02;;;;;;;1.58;1.40;;;;;;;;;;4980475;28;20042;-73
2023/10/23 08:59:28;;;;;;;2.15;1.15;;;;;;;;;;4979122;28;20442;-73
2023/10/23 09:01:54;;;;;;;3.83;1.45;;;;;;;;;;4979821;28;20042;-71
2023/10/23 09:04:20;;;;;;;1.63;1.52;;;;;;;;;;4979478;28;20066;-72
2023/10/23 09:06:47;;;;;;;1.42;1.23;;;;;;;;;;4980496;28;20615;-72
2023/10/23 09:09:13;;;;;;;1.65;1.40;;;;;;;;;;4986425;28;20077;-72
2023/10/23 09:11:44;;;;;;;1.58;1.48;;;;;;;;;;4979564;28;20074;-72
2023/10/23 09:14:10;;;;;;;1.30;1.20;;;;;;;;;;4979329;28;20593;-72
2023/10/23 09:16:36;;;;;;;1.33;1.23;;;;;;;;;;4979340;28;20108;-73
2023/10/23 09:19:02;;;;;;;1.77;1.40;;;;;;;;;;4979191;28;20129;-72
2023/10/23 09:21:29;;;;;;;1.30;1.20;;;;;;;;;;4979221;28;20185;-73
2023/10/23 09:23:58;;;;;;;1.00;0.90;;;;;;;;;;4977324;28;20050;-72
2023/10/23 09:26:24;;;;;;;1.45;1.10;;;;;;;;;;4977634;28;20035;-73
2023/10/23 09:28:52;;;;;;;1.50;1.10;;;;;;;;;;4978114;28;20054;-72
2023/10/23 09:31:19;;;;;;;1.67;0.82;;;;;;;;;;4977508;28;20109;-72
2023/10/23 09:33:48;;;;;;;0.98;0.90;;;;;;;;;;4978498;28;20057;-73
2023/10/23 09:36:15;;;;;;;1.20;1.10;;;;;;;;;;4977481;28;20074;-73
2023/10/23 09:38:54;;;;;;;1.55;1.10;;;;;;;;;;4977868;28;20530;-71
2023/10/23 09:41:20;;;;;;;0.90;0.90;;;;;;;;;;4978535;28;20202;-72
2023/10/23 09:43:46;;;;;;;1.20;1.10;;;;;;;;;;4978983;28;20121;-71
2023/10/23 09:46:13;;;;;;;3.10;1.00;;;;;;;;;;4977692;28;20061;-71
2023/10/23 09:48:40;;;;;;;1.02;1.00;;;;;;;;;;4978269;28;20046;-70
2023/10/23 09:51:08;;;;;;;1.20;1.10;;;;;;;;;;4978786;28;20054;-70
2023/10/23 09:53:34;;;;;;;2.00;1.35;;;;;;;;;;4978337;28;20527;-71
2023/10/23 09:56:03;;;;;;;1.30;1.20;;;;;;;;;;4978563;28;20104;-70
2023/10/23 09:58:32;;;;;;;1.10;1.10;;;;;;;;;;4979248;28;20575;-73
2023/10/23 10:01:03;;;;;;;2.95;1.52;;;;;;;;;;4977678;28;20105;-70
2023/10/23 10:03:30;;;;;;;1.75;1.40;;;;;;;;;;4978008;28;20050;-72
2023/10/23 10:05:58;;;;;;;1.40;1.30;;;;;;;;;;4978933;28;20104;-73
2023/10/23 10:08:26;;;;;;;1.38;1.20;;;;;;;;;;4978502;28;20069;-71
2023/10/23 10:10:51;;;;;;;1.05;1.02;;;;;;;;;;4979410;28;20061;-71
2023/10/23 10:13:18;;;;;;;2.15;1.38;;;;;;;;;;4978474;28;20058;-70
2023/10/23 10:15:44;;;;;;;1.52;1.20;;;;;;;;;;4981605;28;20500;-70
2023/10/23 10:18:10;;;;;;;2.55;1.20;;;;;;;;;;4983057;28;20060;-70
2023/10/23 10:20:37;;;;;;;1.48;1.17;;;;;;;;;;4984520;28;20038;-71
2023/10/23 10:23:13;;;;;;;1.77;1.40;;;;;;;;;;4984695;28;20035;-70
2023/10/23 10:25:43;;;;;;;2.15;1.20;;;;;;;;;;4983499;28;20567;-71
2023/10/23 10:28:08;;;;;;;1.40;1.30;;;;;;;;;;4984033;28;20622;-70
2023/10/23 10:30:43;;;;;;;1.67;1.30;;;;;;;;;;4983648;28;20699;-70
2023/10/23 10:33:10;;;;;;;1.30;1.20;;;;;;;;;;4983557;28;20452;-70
2023/10/23 10:35:35;;;;;;;1.10;1.00;;;;;;;;;;4983477;28;20480;-70
2023/10/23 10:38:03;;;;;;;2.38;1.23;;;;;;;;;;4984136;28;20062;-71
2023/10/23 10:40:55;;;;;;;1.42;1.30;;;;;;;;;;4982753;28;20069;-71
2023/10/23 10:43:23;;;;;;;1.85;1.27;;;;;;;;;;4982624;28;20537;-71
2023/10/23 10:45:48;;;;;;;1.30;1.20;;;;;;;;;;4984441;28;20074;-69
2023/10/23 10:48:15;;;;;;;4.40;1.00;;;;;;;;;;4983794;28;20129;-71
2023/10/23 10:50:41;;;;;;;1.40;1.10;;;;;;;;;;4982521;28;20482;-70
2023/10/23 10:53:12;;;;;;;1.42;1.30;;;;;;;;;;4982913;28;20120;-72
2023/10/23 10:55:38;;;;;;;2.22;1.10;;;;;;;;;;4981495;28;20116;-70
2023/10/23 10:58:04;;;;;;;1.48;1.20;;;;;;;;;;4981940;28;20062;-73
2023/10/23 11:00:31;;;;;;;1.50;1.30;;;;;;;;;;4981229;28;20061;-72
2023/10/23 11:02:56;;;;;;;2.13;1.20;;;;;;;;;;4981365;28;20407;-72
2023/10/23 11:05:22;;;;;;;1.85;1.20;;;;;;;;;;4981289;28;20437;-71
2023/10/23 11:07:49;;;;;;;3.33;1.35;;;;;;;;;;4982025;28;20118;-72
2023/10/23 11:10:15;;;;;;;0.90;0.90;;;;;;;;;;4981779;28;20045;-72
2023/10/23 11:12:40;;;;;;;1.25;1.15;;;;;;;;;;4981430;28;20064;-71
2023/10/23 11:15:06;;;;;;;1.25;1.15;;;;;;;;;;4981985;28;20050;-71
2023/10/23 11:17:32;;;;;;;1.05;1.00;;;;;;;;;;4980919;28;20089;-71
2023/10/23 11:19:58;;;;;;;2.70;1.23;;;;;;;;;;4981582;28;20521;-70
2023/10/23 11:22:25;;;;;;;2.55;1.00;;;;;;;;;;4980935;28;20054;-71
2023/10/23 11:24:51;;;;;;;2.35;1.30;;;;;;;;;;4980949;28;20054;-70
2023/10/23 11:27:17;;;;;;;3.90;1.20;;;;;;;;;;4979690;28;20034;-71
2023/10/23 11:29:44;;;;;;;1.60;1.38;;;;;;;;;;4981734;28;20508;-72
2023/10/23 11:32:15;;;;;;;1.55;1.30;;;;;;;;;;4995955;28;20051;-71
2023/10/23 11:34:40;;;;;;;2.03;1.48;;;;;;;;;;4982409;28;20058;-71
2023/10/23 11:37:07;;;;;;;1.30;1.20;;;;;;;;;;4980517;28;20057;-70
2023/10/23 11:39:35;;;;;;;3.03;1.40;;;;;;;;;;4972846;28;20105;-73
2023/10/23 11:42:02;;;;;;;1.10;1.00;;;;;;;;;;4979740;28;20046;-70
2023/10/23 11:44:29;;;;;;;1.25;1.15;;;;;;;;;;4978918;28;20404;-73
2023/10/23 11:46:57;;;;;;;1.20;1.10;;;;;;;;;;4978551;28;20096;-71
2023/10/23 11:49:22;;;;;;;1.15;1.05;;;;;;;;;;4977295;28;20038;-71
2023/10/23 11:51:49;;;;;;;3.78;1.17;;;;;;;;;;4979454;28;20198;-71
2023/10/23 11:54:15;;;;;;;1.23;1.13;;;;;;;;;;4979300;28;20543;-71
2023/10/23 11:56:42;;;;;;;1.75;1.30;;;;;;;;;;4979768;28;20057;-70
2023/10/23 11:59:08;;;;;;;1.40;1.15;;;;;;;;;;4979560;28;20141;-71
2023/10/23 12:01:33;;;;;;;1.35;1.10;;;;;;;;;;4977227;28;20046;-70
2023/10/23 12:03:59;;;;;;;2.80;1.23;;;;;;;;;;4980436;28;20407;-70
2023/10/23 12:06:24;;;;;;;1.90;1.50;;;;;;;;;;4977383;28;20057;-71
2023/10/23 12:08:50;;;;;;;1.65;1.55;;;;;;;;;;4979420;28;20143;-70
2023/10/23 12:11:15;;;;;;;1.50;1.20;;;;;;;;;;4978538;28;20149;-71
2023/10/23 12:13:41;;;;;;;1.58;1.33;;;;;;;;;;4980015;28;20119;-71
2023/10/23 12:16:09;;;;;;;1.85;1.25;;;;;;;;;;4978289;28;20050;-70
2023/10/23 12:18:38;;;;;;;1.92;1.40;;;;;;;;;;4979251;28;20874;-72
2023/10/23 12:21:06;;;;;;;1.20;1.05;;;;;;;;;;4980989;28;20081;-71
2023/10/23 12:23:32;;;;;;;1.95;1.50;;;;;;;;;;4979511;28;20058;-72
2023/10/23 12:25:57;;;;;;;1.30;0.93;;;;;;;;;;4980093;28;20124;-72
2023/10/23 12:28:23;;;;;;;1.30;1.00;;;;;;;;;;4980906;28;20501;-71
2023/10/23 12:30:48;;;;;;;1.23;0.95;;;;;;;;;;4980355;28;20415;-72
2023/10/23 12:33:13;;;;;;;0.60;0.60;;;;;;;;;;4980561;28;20085;-71
2023/10/23 12:35:39;;;;;;;1.27;1.00;;;;;;;;;;4976426;28;20418;-71
2023/10/23 12:38:04;;;;;;;1.40;0.90;;;;;;;;;;4978400;28;20450;-71
2023/10/23 12:40:31;;;;;;;1.08;0.98;;;;;;;;;;4977255;28;20096;-71
2023/10/23 12:42:56;;;;;;;0.80;0.80;;;;;;;;;;4978357;28;20050;-71
2023/10/23 12:45:22;;;;;;;4.05;1.10;;;;;;;;;;4976690;28;20079;-71
2023/10/23 12:47:47;;;;;;;1.38;1.00;;;;;;;;;;4978439;28;20151;-72
2023/10/23 12:50:12;;;;;;;1.30;0.80;;;;;;;;;;4978044;28;20050;-72
2023/10/23 12:52:38;;;;;;;1.42;1.10;;;;;;;;;;4978312;28;20443;-70
2023/10/23 12:55:04;;;;;;;1.15;0.90;;;;;;;;;;4978906;28;20492;-70
2023/10/23 12:57:31;;;;;;;1.67;0.93;;;;;;;;;;4977906;28;20124;-71
2023/10/23 12:59:57;;;;;;;1.48;1.10;;;;;;;;;;4978442;28;20050;-70
2023/10/23 13:02:22;;;;;;;1.10;1.02;;;;;;;;;;4978020;28;20108;-70
2023/10/23 13:04:48;;;;;;;2.45;1.00;;;;;;;;;;4980221;28;20054;-72
2023/10/23 13:07:13;;;;;;;2.35;1.30;;;;;;;;;;4978730;28;20057;-70
2023/10/23 13:09:39;;;;;;;1.15;1.05;;;;;;;;;;4979672;28;20088;-70
2023/10/23 13:12:04;;;;;;;1.10;1.00;;;;;;;;;;4979760;28;20096;-70
2023/10/23 13:14:30;;;;;;;1.30;1.20;;;;;;;;;;4979638;28;20049;-70
2023/10/23 13:16:55;;;;;;;0.98;0.98;;;;;;;;;;4978118;28;20046;-70
2023/10/23 13:19:21;;;;;;;1.23;1.00;;;;;;;;;;4978847;28;20512;-71
2023/10/23 13:21:46;;;;;;;1.10;1.00;;;;;;;;;;4978799;28;20042;-69
2023/10/23 13:24:12;;;;;;;1.13;1.05;;;;;;;;;;4978576;28;20057;-70
2023/10/23 13:26:38;;;;;;;1.00;1.00;;;;;;;;;;4979274;28;20125;-70
2023/10/23 13:29:05;;;;;;;1.05;1.00;;;;;;;;;;4979359;28;20551;-71
2023/10/23 13:31:30;;;;;;;3.67;1.15;;;;;;;;;;4977367;28;20419;-70
2023/10/23 13:33:56;;;;;;;1.35;1.23;;;;;;;;;;4979691;28;20042;-70
2023/10/23 13:36:21;;;;;;;1.17;1.10;;;;;;;;;;4975800;28;20165;-70
2023/10/23 13:38:46;;;;;;;1.52;1.25;;;;;;;;;;4978374;28;20511;-71
2023/10/23 13:41:12;;;;;;;1.67;1.27;;;;;;;;;;4976517;28;20061;-70
2023/10/23 13:43:37;;;;;;;1.17;1.10;;;;;;;;;;4976469;28;20057;-71
2023/10/23 13:46:03;;;;;;;1.75;1.30;;;;;;;;;;4976680;28;20038;-71
2023/10/23 13:48:29;;;;;;;1.20;1.10;;;;;;;;;;4974754;28;20046;-70
2023/10/23 13:50:54;;;;;;;1.88;1.40;;;;;;;;;;4977539;28;20459;-70
2023/10/23 13:53:22;;;;;;;3.38;1.30;;;;;;;;;;4994720;28;20503;-70
2023/10/23 13:55:49;;;;;;;1.13;1.10;;;;;;;;;;4980882;28;21115;-69
2023/10/23 13:58:14;;;;;;;1.10;1.02;;;;;;;;;;4979785;28;20046;-70
2023/10/23 14:00:40;;;;;;;1.00;1.00;;;;;;;;;;4979872;28;20400;-70
2023/10/23 14:03:07;;;;;;;1.42;1.15;;;;;;;;;;4979783;28;20167;-71
2023/10/23 14:05:37;;;;;;;1.05;1.00;;;;;;;;;;4985270;28;20211;-71
2023/10/23 14:08:03;;;;;;;3.58;1.05;;;;;;;;;;4981500;28;20061;-71
2023/10/23 14:10:29;;;;;;;1.33;1.08;;;;;;;;;;4980176;28;20046;-70
2023/10/23 14:12:54;;;;;;;1.10;0.95;;;;;;;;;;4982517;28;20420;-71
2023/10/23 14:15:20;;;;;;;3.95;1.02;;;;;;;;;;4979175;28;20057;-71
2023/10/23 14:17:46;;;;;;;2.97;0.93;;;;;;;;;;4962932;28;21271;-71
2023/10/23 14:20:12;;;;;;;2.90;1.10;;;;;;;;;;4977783;28;20046;-71
2023/10/23 14:22:39;;;;;;;1.90;1.00;;;;;;;;;;4978855;28;20054;-71
2023/10/23 14:25:09;;;;;;;5.68;1.10;;;;;;;;;;4979998;28;20050;-71
2023/10/23 14:27:35;;;;;;;1.30;0.90;;;;;;;;;;4977988;28;20046;-71
2023/10/23 14:30:01;;;;;;;0.85;0.77;;;;;;;;;;4979578;28;20074;-71
2023/10/23 14:32:26;;;;;;;1.95;1.00;;;;;;;;;;4979286;28;20142;-70
2023/10/23 14:34:52;;;;;;;1.20;1.10;;;;;;;;;;4980727;28;20797;-71
2023/10/23 14:37:17;;;;;;;1.50;0.80;;;;;;;;;;4978179;28;20046;-70